KMRN/MRN METAR and TAF weather

Enter ICAO airport designator
Station Type Date Time Source
KMRN METAR 2019/09/20 20:35 UTC NOAA

KMRN 202035Z AUTO 00000KT 10SM CLR 26/12 A3030 RMK AO2 T02550120


Station Type Date Time Source
KMRN Decoded METAR 2019/09/20 20:35 UTC NOAA

Morganton, Morganton-Lenoir Airport, NC, United States (KMRN) 35-49-17N 081-36-39W
Sep 20, 2019 - 04:35 PM EDT / 2019.09.20 2035 UTC
Wind: Calm:0
Visibility: 10 mile(s):0
Sky conditions: clear
Temperature: 77.9 F (25.5 C)
Dew Point: 53.6 F (12.0 C)
Relative Humidity: 42%
Pressure (altimeter): 30.3 in. Hg (1026 hPa)
ob: KMRN 202035Z AUTO 00000KT 10SM CLR 26/12 A3030 RMK AO2 T02550120
cycle: 20

Station Type Date Time Source
KMRN TAF UTC NOAA

Error!

Example: see airport list